sensor_id;sensor_type;location;lat;lon;timestamp;P1;durP1;ratioP1;P2;durP2;ratioP2
48795;SDS011;34607;48.520;-1.330;2023-04-02T00:01:12;7.75;;;5.18;;
48795;SDS011;34607;48.520;-1.330;2023-04-02T00:04:03;10.15;;;5.13;;
48795;SDS011;34607;48.520;-1.330;2023-04-02T00:06:38;12.45;;;5.07;;
48795;SDS011;34607;48.520;-1.330;2023-04-02T00:12:12;10.38;;;4.68;;
48795;SDS011;34607;48.520;-1.330;2023-04-02T00:14:47;9.65;;;4.95;;
48795;SDS011;34607;48.520;-1.330;2023-04-02T00:17:17;13.35;;;4.80;;
48795;SDS011;34607;48.520;-1.330;2023-04-02T00:19:47;12.45;;;4.93;;
48795;SDS011;34607;48.520;-1.330;2023-04-02T00:22:19;8.40;;;4.85;;
48795;SDS011;34607;48.520;-1.330;2023-04-02T00:24:51;14.95;;;5.10;;
48795;SDS011;34607;48.520;-1.330;2023-04-02T00:27:19;9.70;;;5.38;;
48795;SDS011;34607;48.520;-1.330;2023-04-02T00:29:48;11.98;;;5.22;;
48795;SDS011;34607;48.520;-1.330;2023-04-02T00:32:21;12.73;;;5.47;;
48795;SDS011;34607;48.520;-1.330;2023-04-02T00:34:51;11.73;;;5.63;;
48795;SDS011;34607;48.520;-1.330;2023-04-02T00:37:19;12.75;;;5.75;;
48795;SDS011;34607;48.520;-1.330;2023-04-02T00:39:50;8.88;;;6.10;;
48795;SDS011;34607;48.520;-1.330;2023-04-02T00:42:21;13.48;;;6.03;;
48795;SDS011;34607;48.520;-1.330;2023-04-02T00:44:50;12.90;;;6.25;;
48795;SDS011;34607;48.520;-1.330;2023-04-02T00:47:21;11.15;;;5.43;;
48795;SDS011;34607;48.520;-1.330;2023-04-02T00:49:53;14.27;;;6.30;;
48795;SDS011;34607;48.520;-1.330;2023-04-02T00:52:25;13.85;;;6.43;;
48795;SDS011;34607;48.520;-1.330;2023-04-02T00:54:58;17.17;;;6.85;;
48795;SDS011;34607;48.520;-1.330;2023-04-02T00:57:30;9.82;;;6.15;;
48795;SDS011;34607;48.520;-1.330;2023-04-02T01:00:00;15.32;;;6.43;;
48795;SDS011;34607;48.520;-1.330;2023-04-02T01:02:40;14.05;;;6.28;;
48795;SDS011;34607;48.520;-1.330;2023-04-02T01:05:19;15.43;;;6.28;;
48795;SDS011;34607;48.520;-1.330;2023-04-02T01:07:55;17.77;;;5.85;;
48795;SDS011;34607;48.520;-1.330;2023-04-02T01:10:32;13.50;;;6.50;;
48795;SDS011;34607;48.520;-1.330;2023-04-02T01:13:12;15.73;;;5.90;;
48795;SDS011;34607;48.520;-1.330;2023-04-02T01:15:49;15.77;;;6.50;;
48795;SDS011;34607;48.520;-1.330;2023-04-02T01:18:33;10.77;;;6.13;;
48795;SDS011;34607;48.520;-1.330;2023-04-02T01:21:15;12.85;;;5.75;;
48795;SDS011;34607;48.520;-1.330;2023-04-02T01:23:57;12.43;;;5.75;;
48795;SDS011;34607;48.520;-1.330;2023-04-02T01:26:38;10.05;;;5.10;;
48795;SDS011;34607;48.520;-1.330;2023-04-02T01:29:13;16.58;;;5.70;;
48795;SDS011;34607;48.520;-1.330;2023-04-02T01:31:43;9.13;;;5.50;;
48795;SDS011;34607;48.520;-1.330;2023-04-02T01:34:12;11.93;;;5.75;;
48795;SDS011;34607;48.520;-1.330;2023-04-02T01:36:44;14.77;;;5.85;;
48795;SDS011;34607;48.520;-1.330;2023-04-02T01:39:24;17.88;;;6.07;;
48795;SDS011;34607;48.520;-1.330;2023-04-02T01:42:00;16.40;;;5.63;;
48795;SDS011;34607;48.520;-1.330;2023-04-02T01:44:38;13.25;;;6.05;;
48795;SDS011;34607;48.520;-1.330;2023-04-02T01:47:09;13.88;;;5.45;;
48795;SDS011;34607;48.520;-1.330;2023-04-02T01:49:38;11.07;;;4.40;;
48795;SDS011;34607;48.520;-1.330;2023-04-02T01:52:07;12.07;;;6.25;;
48795;SDS011;34607;48.520;-1.330;2023-04-02T01:54:39;13.27;;;6.00;;
48795;SDS011;34607;48.520;-1.330;2023-04-02T01:57:07;10.15;;;5.57;;
48795;SDS011;34607;48.520;-1.330;2023-04-02T01:59:35;9.90;;;5.90;;
48795;SDS011;34607;48.520;-1.330;2023-04-02T02:02:06;11.00;;;5.35;;
48795;SDS011;34607;48.520;-1.330;2023-04-02T02:04:38;12.00;;;5.78;;
48795;SDS011;34607;48.520;-1.330;2023-04-02T02:07:10;13.23;;;5.18;;
48795;SDS011;34607;48.520;-1.330;2023-04-02T02:09:42;11.45;;;5.10;;
48795;SDS011;34607;48.520;-1.330;2023-04-02T02:12:11;12.77;;;5.28;;
48795;SDS011;34607;48.520;-1.330;2023-04-02T02:14:44;9.63;;;5.13;;
48795;SDS011;34607;48.520;-1.330;2023-04-02T02:17:14;10.32;;;5.35;;
48795;SDS011;34607;48.520;-1.330;2023-04-02T02:19:44;9.13;;;5.47;;
48795;SDS011;34607;48.520;-1.330;2023-04-02T02:22:16;6.40;;;4.47;;
48795;SDS011;34607;48.520;-1.330;2023-04-02T02:24:47;6.57;;;4.47;;
48795;SDS011;34607;48.520;-1.330;2023-04-02T02:27:38;9.93;;;5.10;;
48795;SDS011;34607;48.520;-1.330;2023-04-02T02:30:15;10.77;;;5.20;;
48795;SDS011;34607;48.520;-1.330;2023-04-02T02:32:49;10.27;;;5.32;;
48795;SDS011;34607;48.520;-1.330;2023-04-02T02:35:21;7.97;;;5.05;;
48795;SDS011;34607;48.520;-1.330;2023-04-02T02:37:54;7.80;;;5.53;;
48795;SDS011;34607;48.520;-1.330;2023-04-02T02:40:26;10.87;;;5.30;;
48795;SDS011;34607;48.520;-1.330;2023-04-02T02:43:02;10.48;;;5.53;;
48795;SDS011;34607;48.520;-1.330;2023-04-02T02:45:35;11.95;;;5.20;;
48795;SDS011;34607;48.520;-1.330;2023-04-02T02:48:08;9.63;;;5.50;;
48795;SDS011;34607;48.520;-1.330;2023-04-02T02:53:12;10.88;;;5.47;;
48795;SDS011;34607;48.520;-1.330;2023-04-02T02:55:44;10.73;;;5.82;;
48795;SDS011;34607;48.520;-1.330;2023-04-02T02:58:21;11.50;;;5.90;;
48795;SDS011;34607;48.520;-1.330;2023-04-02T03:01:14;11.57;;;6.43;;
48795;SDS011;34607;48.520;-1.330;2023-04-02T03:03:44;12.07;;;5.50;;
48795;SDS011;34607;48.520;-1.330;2023-04-02T03:06:14;11.68;;;5.47;;
48795;SDS011;34607;48.520;-1.330;2023-04-02T03:08:49;10.27;;;5.90;;
48795;SDS011;34607;48.520;-1.330;2023-04-02T03:11:25;12.70;;;5.72;;
48795;SDS011;34607;48.520;-1.330;2023-04-02T03:14:01;9.73;;;6.15;;
48795;SDS011;34607;48.520;-1.330;2023-04-02T03:16:37;12.82;;;6.22;;
48795;SDS011;34607;48.520;-1.330;2023-04-02T03:19:14;15.63;;;6.07;;
48795;SDS011;34607;48.520;-1.330;2023-04-02T03:21:50;9.93;;;5.82;;
48795;SDS011;34607;48.520;-1.330;2023-04-02T03:24:33;10.15;;;5.85;;
48795;SDS011;34607;48.520;-1.330;2023-04-02T03:27:05;9.13;;;5.97;;
48795;SDS011;34607;48.520;-1.330;2023-04-02T03:29:39;9.13;;;5.53;;
48795;SDS011;34607;48.520;-1.330;2023-04-02T03:32:11;12.90;;;6.18;;
48795;SDS011;34607;48.520;-1.330;2023-04-02T03:34:45;8.45;;;5.40;;
48795;SDS011;34607;48.520;-1.330;2023-04-02T03:37:17;9.43;;;5.63;;
48795;SDS011;34607;48.520;-1.330;2023-04-02T03:39:50;7.45;;;4.95;;
48795;SDS011;34607;48.520;-1.330;2023-04-02T03:42:22;11.52;;;5.75;;
48795;SDS011;34607;48.520;-1.330;2023-04-02T03:44:53;7.93;;;4.78;;
48795;SDS011;34607;48.520;-1.330;2023-04-02T03:47:26;9.45;;;5.10;;
48795;SDS011;34607;48.520;-1.330;2023-04-02T03:50:02;10.82;;;5.35;;
48795;SDS011;34607;48.520;-1.330;2023-04-02T03:52:35;10.55;;;4.47;;
48795;SDS011;34607;48.520;-1.330;2023-04-02T03:55:10;6.88;;;5.00;;
48795;SDS011;34607;48.520;-1.330;2023-04-02T03:57:42;10.27;;;4.43;;
48795;SDS011;34607;48.520;-1.330;2023-04-02T04:00:19;6.72;;;5.20;;
48795;SDS011;34607;48.520;-1.330;2023-04-02T04:02:54;6.80;;;4.53;;
48795;SDS011;34607;48.520;-1.330;2023-04-02T04:05:31;6.45;;;4.78;;
48795;SDS011;34607;48.520;-1.330;2023-04-02T04:08:03;5.45;;;4.53;;
48795;SDS011;34607;48.520;-1.330;2023-04-02T04:10:31;9.68;;;4.57;;
48795;SDS011;34607;48.520;-1.330;2023-04-02T04:13:02;9.75;;;4.07;;
48795;SDS011;34607;48.520;-1.330;2023-04-02T04:15:32;5.63;;;3.92;;
48795;SDS011;34607;48.520;-1.330;2023-04-02T04:18:04;5.28;;;3.70;;
48795;SDS011;34607;48.520;-1.330;2023-04-02T04:20:46;6.00;;;4.07;;
48795;SDS011;34607;48.520;-1.330;2023-04-02T04:23:25;6.82;;;3.70;;
48795;SDS011;34607;48.520;-1.330;2023-04-02T04:26:01;6.13;;;3.67;;
48795;SDS011;34607;48.520;-1.330;2023-04-02T04:28:37;7.18;;;3.63;;
48795;SDS011;34607;48.520;-1.330;2023-04-02T04:31:13;6.68;;;3.55;;
48795;SDS011;34607;48.520;-1.330;2023-04-02T04:33:48;7.50;;;3.33;;
48795;SDS011;34607;48.520;-1.330;2023-04-02T04:36:25;5.80;;;3.70;;
48795;SDS011;34607;48.520;-1.330;2023-04-02T04:39:05;5.55;;;3.25;;
48795;SDS011;34607;48.520;-1.330;2023-04-02T04:41:42;6.50;;;3.67;;
48795;SDS011;34607;48.520;-1.330;2023-04-02T04:44:13;5.43;;;3.80;;
48795;SDS011;34607;48.520;-1.330;2023-04-02T04:46:48;7.40;;;3.75;;
48795;SDS011;34607;48.520;-1.330;2023-04-02T04:49:24;4.07;;;3.05;;
48795;SDS011;34607;48.520;-1.330;2023-04-02T04:52:04;9.07;;;3.83;;
48795;SDS011;34607;48.520;-1.330;2023-04-02T04:54:35;4.85;;;3.65;;
48795;SDS011;34607;48.520;-1.330;2023-04-02T04:57:15;6.38;;;3.90;;
48795;SDS011;34607;48.520;-1.330;2023-04-02T04:59:51;7.07;;;4.15;;
48795;SDS011;34607;48.520;-1.330;2023-04-02T05:02:26;5.25;;;3.08;;
48795;SDS011;34607;48.520;-1.330;2023-04-02T05:04:58;4.45;;;4.05;;
48795;SDS011;34607;48.520;-1.330;2023-04-02T05:07:30;6.30;;;4.03;;
48795;SDS011;34607;48.520;-1.330;2023-04-02T05:12:39;6.93;;;4.47;;
48795;SDS011;34607;48.520;-1.330;2023-04-02T05:15:13;8.40;;;3.92;;
48795;SDS011;34607;48.520;-1.330;2023-04-02T05:17:49;5.65;;;3.58;;
48795;SDS011;34607;48.520;-1.330;2023-04-02T05:20:22;8.80;;;4.25;;
48795;SDS011;34607;48.520;-1.330;2023-04-02T05:25:29;6.18;;;4.13;;
48795;SDS011;34607;48.520;-1.330;2023-04-02T05:28:02;10.15;;;4.72;;
48795;SDS011;34607;48.520;-1.330;2023-04-02T05:30:37;7.63;;;3.70;;
48795;SDS011;34607;48.520;-1.330;2023-04-02T05:33:16;5.05;;;3.47;;
48795;SDS011;34607;48.520;-1.330;2023-04-02T05:35:50;5.70;;;4.00;;
48795;SDS011;34607;48.520;-1.330;2023-04-02T05:38:26;5.78;;;3.63;;
48795;SDS011;34607;48.520;-1.330;2023-04-02T05:40:57;5.15;;;3.85;;
48795;SDS011;34607;48.520;-1.330;2023-04-02T05:43:29;8.18;;;4.05;;
48795;SDS011;34607;48.520;-1.330;2023-04-02T05:46:00;5.97;;;3.75;;
48795;SDS011;34607;48.520;-1.330;2023-04-02T05:51:03;4.93;;;3.63;;
48795;SDS011;34607;48.520;-1.330;2023-04-02T05:53:36;4.97;;;3.20;;
48795;SDS011;34607;48.520;-1.330;2023-04-02T05:56:09;7.15;;;4.32;;
48795;SDS011;34607;48.520;-1.330;2023-04-02T05:58:43;7.55;;;5.03;;
48795;SDS011;34607;48.520;-1.330;2023-04-02T06:01:24;5.07;;;4.13;;
48795;SDS011;34607;48.520;-1.330;2023-04-02T06:04:04;7.03;;;3.55;;
48795;SDS011;34607;48.520;-1.330;2023-04-02T06:06:44;7.75;;;3.97;;
48795;SDS011;34607;48.520;-1.330;2023-04-02T06:09:16;5.28;;;3.65;;
48795;SDS011;34607;48.520;-1.330;2023-04-02T06:11:50;7.55;;;4.38;;
48795;SDS011;34607;48.520;-1.330;2023-04-02T06:14:23;4.93;;;3.33;;
48795;SDS011;34607;48.520;-1.330;2023-04-02T06:16:50;8.10;;;3.33;;
48795;SDS011;34607;48.520;-1.330;2023-04-02T06:19:19;6.22;;;3.90;;
48795;SDS011;34607;48.520;-1.330;2023-04-02T06:21:50;5.30;;;4.20;;
48795;SDS011;34607;48.520;-1.330;2023-04-02T06:24:25;5.72;;;4.10;;
48795;SDS011;34607;48.520;-1.330;2023-04-02T06:26:56;6.90;;;4.88;;
48795;SDS011;34607;48.520;-1.330;2023-04-02T06:29:31;9.73;;;4.88;;
48795;SDS011;34607;48.520;-1.330;2023-04-02T06:32:04;5.38;;;4.68;;
48795;SDS011;34607;48.520;-1.330;2023-04-02T06:34:37;11.10;;;6.63;;
48795;SDS011;34607;48.520;-1.330;2023-04-02T06:37:12;10.70;;;8.15;;
48795;SDS011;34607;48.520;-1.330;2023-04-02T06:39:48;6.70;;;4.70;;
48795;SDS011;34607;48.520;-1.330;2023-04-02T06:42:18;8.43;;;5.30;;
48795;SDS011;34607;48.520;-1.330;2023-04-02T06:45:13;7.97;;;4.80;;
48795;SDS011;34607;48.520;-1.330;2023-04-02T06:47:48;8.52;;;4.22;;
48795;SDS011;34607;48.520;-1.330;2023-04-02T06:50:27;10.10;;;5.00;;
48795;SDS011;34607;48.520;-1.330;2023-04-02T06:53:00;9.88;;;7.28;;
48795;SDS011;34607;48.520;-1.330;2023-04-02T06:55:37;8.90;;;6.15;;
48795;SDS011;34607;48.520;-1.330;2023-04-02T06:58:13;9.00;;;6.13;;
48795;SDS011;34607;48.520;-1.330;2023-04-02T07:00:41;6.20;;;5.60;;
48795;SDS011;34607;48.520;-1.330;2023-04-02T07:03:15;6.90;;;4.47;;
48795;SDS011;34607;48.520;-1.330;2023-04-02T07:05:47;9.48;;;5.18;;
48795;SDS011;34607;48.520;-1.330;2023-04-02T07:08:14;4.82;;;4.30;;
48795;SDS011;34607;48.520;-1.330;2023-04-02T07:10:43;5.40;;;4.50;;
48795;SDS011;34607;48.520;-1.330;2023-04-02T07:13:12;8.95;;;4.45;;
48795;SDS011;34607;48.520;-1.330;2023-04-02T07:15:41;6.40;;;4.60;;
48795;SDS011;34607;48.520;-1.330;2023-04-02T07:18:10;5.68;;;4.88;;
48795;SDS011;34607;48.520;-1.330;2023-04-02T07:20:54;7.88;;;4.07;;
48795;SDS011;34607;48.520;-1.330;2023-04-02T07:23:22;9.27;;;4.78;;
48795;SDS011;34607;48.520;-1.330;2023-04-02T07:25:51;4.55;;;3.65;;
48795;SDS011;34607;48.520;-1.330;2023-04-02T07:28:20;7.30;;;3.90;;
48795;SDS011;34607;48.520;-1.330;2023-04-02T07:30:48;4.85;;;3.22;;
48795;SDS011;34607;48.520;-1.330;2023-04-02T07:33:16;14.77;;;3.90;;
48795;SDS011;34607;48.520;-1.330;2023-04-02T07:35:45;5.20;;;3.50;;
48795;SDS011;34607;48.520;-1.330;2023-04-02T07:38:12;7.60;;;4.78;;
48795;SDS011;34607;48.520;-1.330;2023-04-02T07:40:39;9.38;;;4.70;;
48795;SDS011;34607;48.520;-1.330;2023-04-02T07:43:08;7.10;;;4.47;;
48795;SDS011;34607;48.520;-1.330;2023-04-02T07:45:35;5.28;;;3.65;;
48795;SDS011;34607;48.520;-1.330;2023-04-02T07:48:03;5.88;;;4.25;;
48795;SDS011;34607;48.520;-1.330;2023-04-02T07:50:31;5.95;;;3.20;;
48795;SDS011;34607;48.520;-1.330;2023-04-02T07:52:58;6.05;;;3.50;;
48795;SDS011;34607;48.520;-1.330;2023-04-02T07:55:25;6.35;;;3.25;;
48795;SDS011;34607;48.520;-1.330;2023-04-02T07:57:53;4.70;;;3.30;;
48795;SDS011;34607;48.520;-1.330;2023-04-02T08:00:23;5.07;;;2.97;;
48795;SDS011;34607;48.520;-1.330;2023-04-02T08:02:52;3.72;;;3.05;;
48795;SDS011;34607;48.520;-1.330;2023-04-02T08:05:19;4.00;;;3.10;;
48795;SDS011;34607;48.520;-1.330;2023-04-02T08:07:50;5.13;;;3.50;;
48795;SDS011;34607;48.520;-1.330;2023-04-02T08:10:19;5.00;;;2.90;;
48795;SDS011;34607;48.520;-1.330;2023-04-02T08:12:46;5.10;;;3.20;;
48795;SDS011;34607;48.520;-1.330;2023-04-02T08:15:14;6.22;;;3.30;;
48795;SDS011;34607;48.520;-1.330;2023-04-02T08:17:43;4.60;;;3.33;;
48795;SDS011;34607;48.520;-1.330;2023-04-02T08:20:13;4.47;;;3.00;;
48795;SDS011;34607;48.520;-1.330;2023-04-02T08:22:42;5.93;;;3.03;;
48795;SDS011;34607;48.520;-1.330;2023-04-02T08:25:09;6.80;;;2.80;;
48795;SDS011;34607;48.520;-1.330;2023-04-02T08:27:37;4.65;;;2.92;;
48795;SDS011;34607;48.520;-1.330;2023-04-02T08:30:05;6.03;;;3.97;;
48795;SDS011;34607;48.520;-1.330;2023-04-02T08:32:33;7.90;;;3.42;;
48795;SDS011;34607;48.520;-1.330;2023-04-02T08:35:02;7.78;;;3.45;;
48795;SDS011;34607;48.520;-1.330;2023-04-02T08:37:29;4.38;;;3.22;;
48795;SDS011;34607;48.520;-1.330;2023-04-02T08:39:56;5.50;;;3.78;;
48795;SDS011;34607;48.520;-1.330;2023-04-02T08:42:25;5.60;;;3.42;;
48795;SDS011;34607;48.520;-1.330;2023-04-02T08:45:02;5.53;;;3.28;;
48795;SDS011;34607;48.520;-1.330;2023-04-02T08:47:43;9.15;;;3.75;;
48795;SDS011;34607;48.520;-1.330;2023-04-02T08:50:13;5.53;;;3.45;;
48795;SDS011;34607;48.520;-1.330;2023-04-02T08:52:48;5.18;;;3.67;;
48795;SDS011;34607;48.520;-1.330;2023-04-02T08:55:18;7.20;;;3.58;;
48795;SDS011;34607;48.520;-1.330;2023-04-02T08:57:53;3.88;;;2.97;;
48795;SDS011;34607;48.520;-1.330;2023-04-02T09:00:29;7.72;;;2.85;;
48795;SDS011;34607;48.520;-1.330;2023-04-02T09:03:01;7.65;;;2.90;;
48795;SDS011;34607;48.520;-1.330;2023-04-02T09:05:36;5.32;;;2.33;;
48795;SDS011;34607;48.520;-1.330;2023-04-02T09:08:14;6.82;;;3.05;;
48795;SDS011;34607;48.520;-1.330;2023-04-02T09:10:46;5.68;;;4.18;;
48795;SDS011;34607;48.520;-1.330;2023-04-02T09:13:18;3.45;;;3.03;;
48795;SDS011;34607;48.520;-1.330;2023-04-02T09:15:50;4.33;;;2.93;;
48795;SDS011;34607;48.520;-1.330;2023-04-02T09:18:22;5.40;;;3.35;;
48795;SDS011;34607;48.520;-1.330;2023-04-02T09:20:50;7.22;;;3.50;;
48795;SDS011;34607;48.520;-1.330;2023-04-02T09:23:19;5.85;;;3.65;;
48795;SDS011;34607;48.520;-1.330;2023-04-02T09:25:49;5.93;;;4.10;;
48795;SDS011;34607;48.520;-1.330;2023-04-02T09:28:18;5.32;;;2.83;;
48795;SDS011;34607;48.520;-1.330;2023-04-02T09:30:53;3.40;;;2.78;;
48795;SDS011;34607;48.520;-1.330;2023-04-02T09:33:44;9.48;;;3.70;;
48795;SDS011;34607;48.520;-1.330;2023-04-02T09:36:27;6.22;;;2.90;;
48795;SDS011;34607;48.520;-1.330;2023-04-02T09:39:02;4.93;;;3.20;;
48795;SDS011;34607;48.520;-1.330;2023-04-02T09:41:33;5.93;;;4.00;;
48795;SDS011;34607;48.520;-1.330;2023-04-02T09:44:11;8.70;;;5.93;;
48795;SDS011;34607;48.520;-1.330;2023-04-02T09:46:53;7.15;;;5.03;;
48795;SDS011;34607;48.520;-1.330;2023-04-02T09:49:24;4.03;;;3.17;;
48795;SDS011;34607;48.520;-1.330;2023-04-02T09:54:46;4.55;;;3.03;;
48795;SDS011;34607;48.520;-1.330;2023-04-02T09:57:42;6.35;;;4.20;;
48795;SDS011;34607;48.520;-1.330;2023-04-02T10:00:10;3.75;;;3.05;;
48795;SDS011;34607;48.520;-1.330;2023-04-02T10:02:43;6.10;;;5.10;;
48795;SDS011;34607;48.520;-1.330;2023-04-02T10:05:16;4.50;;;3.78;;
48795;SDS011;34607;48.520;-1.330;2023-04-02T18:55:55;8.30;;;3.90;;
48795;SDS011;34607;48.520;-1.330;2023-04-02T18:58:26;6.45;;;4.00;;
48795;SDS011;34607;48.520;-1.330;2023-04-02T19:00:59;11.32;;;3.83;;
48795;SDS011;34607;48.520;-1.330;2023-04-02T19:03:30;8.00;;;3.78;;
48795;SDS011;34607;48.520;-1.330;2023-04-02T19:06:03;10.15;;;3.63;;
48795;SDS011;34607;48.520;-1.330;2023-04-02T19:08:34;7.82;;;3.58;;
48795;SDS011;34607;48.520;-1.330;2023-04-02T19:11:10;8.07;;;3.50;;
48795;SDS011;34607;48.520;-1.330;2023-04-02T19:13:39;15.88;;;4.75;;
48795;SDS011;34607;48.520;-1.330;2023-04-02T19:19:15;9.93;;;4.93;;
48795;SDS011;34607;48.520;-1.330;2023-04-02T19:21:56;8.70;;;3.55;;
48795;SDS011;34607;48.520;-1.330;2023-04-02T19:24:37;11.50;;;4.78;;
48795;SDS011;34607;48.520;-1.330;2023-04-02T19:27:21;10.43;;;5.07;;
48795;SDS011;34607;48.520;-1.330;2023-04-02T19:29:56;8.35;;;3.90;;
48795;SDS011;34607;48.520;-1.330;2023-04-02T19:32:34;12.45;;;7.43;;
48795;SDS011;34607;48.520;-1.330;2023-04-02T19:35:15;8.32;;;4.85;;
48795;SDS011;34607;48.520;-1.330;2023-04-02T19:37:50;16.52;;;5.43;;
48795;SDS011;34607;48.520;-1.330;2023-04-02T19:40:25;14.10;;;7.32;;
48795;SDS011;34607;48.520;-1.330;2023-04-02T19:43:04;12.13;;;8.27;;
48795;SDS011;34607;48.520;-1.330;2023-04-02T19:45:35;9.18;;;6.75;;
48795;SDS011;34607;48.520;-1.330;2023-04-02T19:48:08;13.93;;;7.00;;
48795;SDS011;34607;48.520;-1.330;2023-04-02T19:50:38;10.95;;;7.20;;
48795;SDS011;34607;48.520;-1.330;2023-04-02T19:53:05;12.57;;;6.10;;
48795;SDS011;34607;48.520;-1.330;2023-04-02T19:55:33;15.90;;;8.68;;
48795;SDS011;34607;48.520;-1.330;2023-04-02T19:58:00;14.07;;;8.30;;
48795;SDS011;34607;48.520;-1.330;2023-04-02T20:00:29;13.82;;;8.00;;
48795;SDS011;34607;48.520;-1.330;2023-04-02T20:02:56;12.60;;;6.60;;
48795;SDS011;34607;48.520;-1.330;2023-04-02T20:05:23;10.25;;;6.07;;
48795;SDS011;34607;48.520;-1.330;2023-04-02T20:07:50;14.52;;;7.18;;
48795;SDS011;34607;48.520;-1.330;2023-04-02T20:10:17;12.25;;;6.88;;
48795;SDS011;34607;48.520;-1.330;2023-04-02T20:12:44;8.93;;;5.53;;
48795;SDS011;34607;48.520;-1.330;2023-04-02T20:15:11;12.38;;;6.20;;
48795;SDS011;34607;48.520;-1.330;2023-04-02T20:17:39;11.27;;;6.22;;
48795;SDS011;34607;48.520;-1.330;2023-04-02T20:20:07;11.07;;;5.88;;
48795;SDS011;34607;48.520;-1.330;2023-04-02T20:22:34;14.10;;;6.22;;
48795;SDS011;34607;48.520;-1.330;2023-04-02T20:25:01;12.18;;;7.53;;
48795;SDS011;34607;48.520;-1.330;2023-04-02T20:27:29;16.95;;;10.23;;
48795;SDS011;34607;48.520;-1.330;2023-04-02T20:29:56;14.38;;;8.60;;
48795;SDS011;34607;48.520;-1.330;2023-04-02T20:32:23;13.95;;;7.85;;
48795;SDS011;34607;48.520;-1.330;2023-04-02T20:34:52;13.90;;;7.65;;
48795;SDS011;34607;48.520;-1.330;2023-04-02T20:37:20;16.48;;;6.95;;
48795;SDS011;34607;48.520;-1.330;2023-04-02T20:39:47;12.13;;;6.68;;
48795;SDS011;34607;48.520;-1.330;2023-04-02T20:42:14;15.90;;;7.20;;
48795;SDS011;34607;48.520;-1.330;2023-04-02T20:44:41;17.08;;;6.60;;
48795;SDS011;34607;48.520;-1.330;2023-04-02T20:47:08;12.63;;;6.10;;
48795;SDS011;34607;48.520;-1.330;2023-04-02T20:49:36;13.75;;;6.15;;
48795;SDS011;34607;48.520;-1.330;2023-04-02T20:52:05;11.40;;;5.45;;
48795;SDS011;34607;48.520;-1.330;2023-04-02T20:54:32;11.35;;;6.30;;
48795;SDS011;34607;48.520;-1.330;2023-04-02T20:56:59;13.52;;;5.90;;
48795;SDS011;34607;48.520;-1.330;2023-04-02T20:59:26;11.57;;;6.45;;
48795;SDS011;34607;48.520;-1.330;2023-04-02T21:01:53;12.38;;;5.88;;
